Time;durP1;ratioP1;P1;durP2;ratioP2;P2;SDS_P1;SDS_P2;PMS_P1;PMS_P2;Temp;Humidity;BMP_temperature;BMP_pressure;BME280_temperature;BME280_humidity;BME280_pressure;Samples;Min_cycle;Max_cycle;Signal;HPM_P1;HPM_P2
2021/01/17 00:00:11;;;;;;;31.33;14.00;;;;;;;-11.16;45.54;100473.89;1709142;83;20939;-56
2021/01/17 00:02:45;;;;;;;27.50;13.13;;;;;;;-11.23;45.64;100425.93;1722135;82;21115;-56
2021/01/17 00:05:14;;;;;;;32.70;14.07;;;;;;;-11.25;45.68;100432.63;1722122;83;21365;-62
2021/01/17 00:07:42;;;;;;;33.07;14.00;;;;;;;-11.31;45.79;100437.03;1693122;84;21166;-61
2021/01/17 00:10:13;;;;;;;36.00;13.70;;;;;;;-11.31;45.84;100440.97;1722094;82;21502;-61
2021/01/17 00:12:40;;;;;;;30.90;14.33;;;;;;;-11.31;45.92;100436.55;1722126;82;20956;-58
2021/01/17 00:15:11;;;;;;;34.87;14.57;;;;;;;-11.28;45.97;100444.20;1693184;84;20954;-62
2021/01/17 00:17:39;;;;;;;30.53;14.17;;;;;;;-11.25;45.94;100439.19;1722190;82;22852;-59
2021/01/17 00:20:15;;;;;;;30.80;14.40;;;;;;;-11.22;45.92;100434.16;1722004;82;21074;-60
2021/01/17 00:22:43;;;;;;;27.37;14.07;;;;;;;-11.20;45.84;100433.55;1722214;83;20988;-60
2021/01/17 00:25:13;;;;;;;34.50;15.57;;;;;;;-11.23;45.82;100449.09;1722052;82;21127;-59
2021/01/17 00:27:41;;;;;;;33.23;14.67;;;;;;;-11.24;45.87;100461.88;1722145;82;21589;-59
2021/01/17 00:30:11;;;;;;;28.47;13.87;;;;;;;-11.23;45.82;100453.51;1722055;82;21422;-59
2021/01/17 00:32:39;;;;;;;38.87;15.27;;;;;;;-11.23;45.80;100440.37;1693141;84;20978;-61
2021/01/17 00:35:09;;;;;;;31.80;14.70;;;;;;;-11.25;45.89;100454.47;1722027;83;20964;-60
2021/01/17 00:37:36;;;;;;;31.50;14.53;;;;;;;-11.22;45.86;100457.31;1693137;84;21089;-61
2021/01/17 00:40:05;;;;;;;31.70;14.73;;;;;;;-11.22;45.85;100449.44;1722071;83;21574;-61
2021/01/17 00:42:33;;;;;;;34.20;15.30;;;;;;;-11.20;45.86;100442.29;1722050;82;21382;-59
2021/01/17 00:45:03;;;;;;;36.13;15.87;;;;;;;-11.19;45.92;100449.69;1693087;83;21108;-59
2021/01/17 00:47:31;;;;;;;31.10;13.87;;;;;;;-11.20;45.96;100455.42;1722092;82;21278;-57
2021/01/17 00:49:58;;;;;;;28.20;13.87;;;;;;;-11.20;45.95;100455.42;1669635;84;21513;-59
2021/01/17 00:52:26;;;;;;;34.67;14.47;;;;;;;-11.18;45.91;100456.12;1722179;83;21074;-59
2021/01/17 00:54:54;;;;;;;34.80;14.20;;;;;;;-11.19;45.94;100460.19;1693091;83;23520;-59
2021/01/17 00:57:22;;;;;;;34.90;14.80;;;;;;;-11.17;45.93;100470.09;1722002;82;20956;-60
2021/01/17 00:59:50;;;;;;;30.57;14.97;;;;;;;-11.20;45.94;100468.56;1722044;83;20951;-60
2021/01/17 01:02:18;;;;;;;25.83;13.70;;;;;;;-11.21;45.95;100469.48;1714698;83;20961;-60
2021/01/17 01:04:46;;;;;;;27.83;14.63;;;;;;;-11.19;45.97;100468.08;1702440;84;21103;-60
2021/01/17 01:07:14;;;;;;;32.53;14.23;;;;;;;-11.16;46.01;100471.75;1702697;83;21436;-58
2021/01/17 01:09:42;;;;;;;36.20;16.33;;;;;;;-11.15;46.04;100470.78;1702607;83;21822;-58
2021/01/17 01:12:12;;;;;;;36.30;14.57;;;;;;;-11.17;46.00;100482.74;1714617;83;21973;-60
2021/01/17 01:14:41;;;;;;;33.80;14.90;;;;;;;-11.17;46.04;100485.37;1649709;85;21635;-59
2021/01/17 01:17:09;;;;;;;31.20;15.17;;;;;;;-11.17;45.97;100490.63;1702700;84;20937;-59
2021/01/17 01:19:37;;;;;;;32.37;13.90;;;;;;;-11.18;45.90;100481.08;1702230;84;22081;-60
2021/01/17 01:22:05;;;;;;;33.87;14.97;;;;;;;-11.21;45.89;100487.87;1702044;84;21016;-59
2021/01/17 01:24:32;;;;;;;34.10;15.30;;;;;;;-11.24;45.96;100477.63;1702144;84;21032;-59
2021/01/17 01:27:00;;;;;;;32.83;15.60;;;;;;;-11.24;45.98;100482.89;1702108;84;21087;-59
2021/01/17 01:29:27;;;;;;;34.13;15.30;;;;;;;-11.23;45.97;100475.36;1702136;84;20944;-55
2021/01/17 01:31:56;;;;;;;32.40;15.00;;;;;;;-11.27;46.03;100474.75;1702142;84;21206;-57
2021/01/17 01:34:23;;;;;;;33.90;15.30;;;;;;;-11.28;46.05;100473.09;1702037;84;20961;-57
2021/01/17 01:36:52;;;;;;;32.10;15.50;;;;;;;-11.30;46.04;100470.25;1702153;84;21020;-57
2021/01/17 01:39:20;;;;;;;31.50;14.63;;;;;;;-11.32;46.14;100470.83;1702062;84;20964;-57
2021/01/17 01:41:47;;;;;;;35.97;15.70;;;;;;;-11.31;46.12;100460.67;1702148;84;20972;-56
2021/01/17 01:44:15;;;;;;;37.67;16.00;;;;;;;-11.31;46.12;100454.11;1714576;83;21367;-58
2021/01/17 01:46:43;;;;;;;29.57;15.07;;;;;;;-11.33;46.16;100450.78;1702339;84;21138;-57
2021/01/17 01:49:12;;;;;;;38.20;15.63;;;;;;;-11.34;46.11;100447.32;1702574;83;21201;-56
2021/01/17 01:51:40;;;;;;;33.70;14.83;;;;;;;-11.36;46.13;100454.47;1702629;83;20964;-58
2021/01/17 01:54:09;;;;;;;34.93;14.57;;;;;;;-11.41;46.17;100448.75;1702119;84;21086;-56
2021/01/17 01:56:36;;;;;;;32.87;14.67;;;;;;;-11.42;46.21;100446.25;1714591;83;21278;-56
2021/01/17 01:59:04;;;;;;;34.60;16.37;;;;;;;-11.46;46.24;100442.19;1702306;84;21196;-57
2021/01/17 02:01:33;;;;;;;29.73;14.37;;;;;;;-11.53;46.34;100440.06;1724082;80;20985;-57
2021/01/17 02:04:01;;;;;;;32.40;14.73;;;;;;;-11.55;46.46;100442.47;1717332;83;21620;-58
2021/01/17 02:06:29;;;;;;;37.77;15.23;;;;;;;-11.56;46.47;100442.08;1726147;83;21103;-59
2021/01/17 02:09:25;;;;;;;32.47;15.30;;;;;;;-11.56;46.51;100448.16;1747138;82;21283;-58
2021/01/17 02:12:10;;;;;;;33.10;15.35;;;;;;;-11.58;46.52;100451.88;1726319;83;21131;-59
2021/01/17 02:15:14;;;;;;;36.07;15.53;;;;;;;-11.61;46.55;100450.31;1747171;82;21088;-59
2021/01/17 02:17:41;;;;;;;35.30;16.10;;;;;;;-11.57;46.58;100453.55;1726155;83;21044;-60
2021/01/17 02:20:17;;;;;;;34.00;16.20;;;;;;;-11.58;46.60;100457.13;1747107;82;20945;-59
2021/01/17 02:23:02;;;;;;;37.60;15.80;;;;;;;-11.56;46.59;100458.66;1726369;83;21400;-58
2021/01/17 02:25:35;;;;;;;35.73;14.67;;;;;;;-11.54;46.57;100462.51;1747107;81;20910;-58
2021/01/17 02:28:09;;;;;;;36.43;16.80;;;;;;;-11.53;46.57;100463.69;1725880;83;21009;-59
2021/01/17 02:30:45;;;;;;;38.53;16.67;;;;;;;-11.55;46.53;100460.84;1747234;82;21459;-61
2021/01/17 02:33:34;;;;;;;37.27;15.90;;;;;;;-11.57;46.59;100452.23;1726131;83;21116;-56
2021/01/17 02:36:30;;;;;;;32.97;15.27;;;;;;;-11.57;46.51;100451.75;1747151;82;22206;-56
2021/01/17 02:39:14;;;;;;;40.70;16.37;;;;;;;-11.59;46.51;100453.67;1683867;83;21096;-58
2021/01/17 02:42:01;;;;;;;35.97;16.77;;;;;;;-11.63;46.59;100446.98;1747086;81;20952;-60
2021/01/17 02:44:31;;;;;;;34.20;16.20;;;;;;;-11.67;46.61;100445.55;1726215;83;21479;-59
2021/01/17 02:47:00;;;;;;;33.60;16.00;;;;;;;-11.68;46.62;100442.58;1747164;82;20950;-57
2021/01/17 02:49:28;;;;;;;42.33;16.97;;;;;;;-11.67;46.65;100451.28;1717285;83;21488;-58
2021/01/17 02:51:57;;;;;;;44.97;17.33;;;;;;;-11.66;46.65;100452.95;1742614;82;21673;-58
2021/01/17 02:54:31;;;;;;;34.50;15.63;;;;;;;-11.64;46.70;100451.05;1709182;83;21151;-54
2021/01/17 02:57:08;;;;;;;35.00;16.30;;;;;;;-11.62;46.72;100446.51;1709280;84;21076;-57
2021/01/17 03:00:07;;;;;;;36.40;15.53;;;;;;;-11.61;46.61;100450.31;1709198;83;21523;-57
2021/01/17 03:04:50;;;;;;;39.80;16.20;;;;;;;-11.60;46.65;100450.70;1846340;77;27074;-56
2021/01/17 03:07:17;;;;;;;35.63;15.40;;;;;;;-11.66;46.66;100443.76;1823898;78;20987;-57
2021/01/17 03:09:47;;;;;;;35.43;15.13;;;;;;;-11.67;46.67;100435.05;1794411;78;21213;-57
2021/01/17 03:12:14;;;;;;;35.77;16.23;;;;;;;-11.71;46.62;100434.93;1823782;78;20958;-56
2021/01/17 03:14:43;;;;;;;32.87;15.27;;;;;;;-11.81;46.71;100438.78;1823758;78;20926;-57
2021/01/17 03:17:11;;;;;;;32.87;15.27;;;;;;;-11.84;46.82;100432.95;1823795;78;20923;-56
2021/01/17 03:19:39;;;;;;;36.37;15.80;;;;;;;-11.84;46.86;100435.10;1823863;78;20982;-56
2021/01/17 03:22:06;;;;;;;35.20;16.53;;;;;;;-11.84;46.83;100427.71;1823758;78;21399;-57
2021/01/17 03:24:34;;;;;;;36.83;17.13;;;;;;;-11.81;46.83;100433.98;1823750;78;20970;-57
2021/01/17 03:27:03;;;;;;;40.00;17.50;;;;;;;-11.82;46.82;100432.34;1823771;78;20951;-56
2021/01/17 03:29:31;;;;;;;38.13;17.70;;;;;;;-11.83;46.83;100435.45;1823810;78;20930;-56
2021/01/17 03:31:59;;;;;;;34.17;17.10;;;;;;;-11.82;46.89;100437.59;1823829;78;20986;-56
2021/01/17 03:34:27;;;;;;;39.10;16.57;;;;;;;-11.81;46.85;100428.73;1805943;78;21924;-57
2021/01/17 03:36:54;;;;;;;37.57;17.23;;;;;;;-11.79;46.85;100434.71;1791322;79;20943;-56
2021/01/17 03:39:22;;;;;;;39.77;17.37;;;;;;;-11.78;46.80;100435.06;1791458;79;20950;-56
2021/01/17 03:41:50;;;;;;;42.23;17.63;;;;;;;-11.78;46.77;100438.52;1791437;79;21054;-55
2021/01/17 03:44:18;;;;;;;35.10;16.60;;;;;;;-11.77;46.82;100423.61;1791371;80;20970;-55
2021/01/17 03:46:46;;;;;;;33.90;16.17;;;;;;;-11.76;46.71;100423.95;1791363;80;21455;-56
2021/01/17 03:49:14;;;;;;;36.77;18.13;;;;;;;-11.75;46.75;100426.13;1791335;80;20999;-57
2021/01/17 03:51:43;;;;;;;38.70;17.90;;;;;;;-11.75;46.67;100430.06;1791382;79;20946;-56
2021/01/17 03:54:11;;;;;;;39.03;17.07;;;;;;;-11.74;46.67;100427.31;1791302;80;20887;-58
2021/01/17 03:56:38;;;;;;;38.00;16.30;;;;;;;-11.74;46.65;100426.00;1791477;80;21497;-58
2021/01/17 03:59:06;;;;;;;30.37;14.30;;;;;;;-11.74;46.69;100427.31;1791366;79;21214;-55
2021/01/17 04:01:34;;;;;;;35.00;15.83;;;;;;;-11.75;46.70;100425.66;1791306;80;20926;-56
2021/01/17 04:04:02;;;;;;;37.50;16.77;;;;;;;-11.75;46.62;100425.66;1785837;79;20935;-57
2021/01/17 04:06:32;;;;;;;28.33;14.33;;;;;;;-11.75;46.60;100426.97;1783260;80;20962;-56
2021/01/17 04:08:59;;;;;;;33.83;16.37;;;;;;;-11.79;46.56;100431.61;1783270;80;21560;-57
2021/01/17 04:11:27;;;;;;;34.17;16.70;;;;;;;-11.84;46.62;100431.64;1783258;80;21218;-56
2021/01/17 04:13:55;;;;;;;40.23;16.30;;;;;;;-11.86;46.62;100421.28;1783165;80;20934;-58
2021/01/17 04:16:23;;;;;;;34.30;15.43;;;;;;;-11.85;46.70;100422.11;1782817;80;21391;-57
2021/01/17 04:18:51;;;;;;;37.23;16.07;;;;;;;-11.87;46.76;100416.13;1782718;80;20939;-59
2021/01/17 04:21:19;;;;;;;36.13;16.30;;;;;;;-11.85;46.71;100413.76;1782723;80;21011;-58
2021/01/17 04:23:46;;;;;;;31.60;16.00;;;;;;;-11.86;46.69;100424.34;1782675;80;21300;-61
2021/01/17 04:26:19;;;;;;;41.17;16.70;;;;;;;-11.89;46.74;100417.56;1782749;80;20951;-56
2021/01/17 04:28:46;;;;;;;35.57;15.70;;;;;;;-11.91;46.80;100416.86;1782757;80;21623;-56
2021/01/17 04:31:15;;;;;;;36.07;15.17;;;;;;;-11.92;46.79;100424.35;1782815;80;21626;-59
2021/01/17 04:33:43;;;;;;;37.93;16.03;;;;;;;-11.92;46.82;100427.45;1782739;79;21476;-59
2021/01/17 04:36:12;;;;;;;34.73;16.17;;;;;;;-11.92;46.83;100432.70;1782732;80;21289;-58
2021/01/17 04:38:40;;;;;;;38.13;15.70;;;;;;;-11.93;46.83;100435.81;1782695;80;21583;-59
2021/01/17 04:41:08;;;;;;;35.83;15.63;;;;;;;-11.93;46.86;100431.04;1782696;80;21010;-58
2021/01/17 04:43:53;;;;;;;34.90;14.50;;;;;;;-11.94;46.83;100437.25;1726874;80;21603;-55
2021/01/17 04:46:21;;;;;;;40.90;16.17;;;;;;;-11.94;46.88;100433.31;1782835;80;20939;-56
2021/01/17 04:48:53;;;;;;;37.80;16.20;;;;;;;-11.89;46.79;100440.35;1782712;80;21360;-55
2021/01/17 04:51:21;;;;;;;39.37;16.90;;;;;;;-11.89;46.77;100439.04;1782697;80;21532;-56
2021/01/17 04:53:48;;;;;;;40.20;18.60;;;;;;;-11.90;46.67;100432.12;1782689;80;20967;-56
2021/01/17 04:56:30;;;;;;;40.13;18.30;;;;;;;-11.92;46.63;100423.52;1782668;80;21603;-56
2021/01/17 04:59:17;;;;;;;43.13;18.47;;;;;;;-11.94;46.60;100425.44;1782800;80;21038;-56
2021/01/17 05:01:55;;;;;;;35.73;17.17;;;;;;;-11.99;46.55;100432.36;1782735;80;21369;-57
2021/01/17 05:04:47;;;;;;;44.10;17.83;;;;;;;-12.02;46.59;100427.33;1782497;80;21492;-55
2021/01/17 05:07:24;;;;;;;39.10;17.93;;;;;;;-12.03;46.48;100429.60;1782699;80;21061;-58
2021/01/17 05:10:08;;;;;;;38.33;16.83;;;;;;;-12.09;46.44;100436.16;1752162;80;20926;-58
2021/01/17 05:12:42;;;;;;;41.03;17.53;;;;;;;-12.11;46.48;100435.94;1782740;80;21014;-57
2021/01/17 05:15:11;;;;;;;35.87;16.37;;;;;;;-12.16;46.48;100437.59;1782839;80;21572;-57
2021/01/17 05:17:41;;;;;;;38.23;16.23;;;;;;;-12.19;46.50;100434.36;1782688;80;21631;-57
2021/01/17 05:20:10;;;;;;;44.03;18.93;;;;;;;-12.26;46.51;100428.76;1782675;80;21010;-56
2021/01/17 05:22:37;;;;;;;39.23;18.87;;;;;;;-12.24;46.66;100433.87;1782623;80;21022;-57
2021/01/17 05:25:07;;;;;;;39.37;18.03;;;;;;;-12.23;46.73;100439.00;1782837;80;20947;-56
2021/01/17 05:27:37;;;;;;;39.93;18.87;;;;;;;-12.24;46.80;100430.78;1782657;80;21371;-57
2021/01/17 05:30:09;;;;;;;42.43;19.20;;;;;;;-12.22;46.78;100439.34;1782601;80;21069;-56
2021/01/17 05:32:37;;;;;;;35.47;18.33;;;;;;;-12.20;46.80;100438.78;1782769;80;21007;-56
2021/01/17 05:35:06;;;;;;;37.60;17.60;;;;;;;-12.16;46.77;100434.97;1782587;79;20935;-56
2021/01/17 05:37:33;;;;;;;39.03;17.43;;;;;;;-12.17;46.76;100429.83;1782703;80;20935;-56
2021/01/17 05:40:06;;;;;;;36.93;16.60;;;;;;;-12.17;46.77;100425.89;1782656;80;21380;-56
2021/01/17 05:42:36;;;;;;;35.00;17.33;;;;;;;-12.21;46.78;100438.42;1782616;80;20959;-58
2021/01/17 05:45:21;;;;;;;43.00;18.77;;;;;;;-12.21;46.88;100434.48;1782483;80;20951;-57
2021/01/17 05:47:59;;;;;;;44.53;16.77;;;;;;;-12.19;46.85;100433.88;1782785;80;21587;-58
2021/01/17 05:50:30;;;;;;;37.30;18.27;;;;;;;-12.20;46.88;100432.22;1782794;80;21105;-56
2021/01/17 05:53:01;;;;;;;40.23;19.00;;;;;;;-12.18;46.97;100443.89;1782620;80;21445;-57
2021/01/17 05:55:33;;;;;;;37.03;17.73;;;;;;;-12.18;46.88;100452.59;1781590;80;21584;-58
2021/01/17 05:58:29;;;;;;;43.20;19.17;;;;;;;-12.20;46.97;100447.13;1782664;80;20935;-56
2021/01/17 06:01:18;;;;;;;45.17;19.90;;;;;;;-12.18;46.92;100444.73;1782629;80;20974;-58
2021/01/17 06:03:54;;;;;;;38.27;19.57;;;;;;;-12.14;46.78;100439.61;1782545;80;21006;-57
2021/01/17 06:06:31;;;;;;;47.37;20.40;;;;;;;-12.18;46.80;100443.42;1782692;80;21378;-57
2021/01/17 06:09:02;;;;;;;48.53;22.67;;;;;;;-12.16;46.86;100455.13;1782606;80;21011;-57
2021/01/17 06:11:30;;;;;;;52.87;23.93;;;;;;;-12.12;46.85;100457.37;1782725;80;21512;-57
2021/01/17 06:14:01;;;;;;;50.40;22.83;;;;;;;-12.09;46.90;100453.69;1782621;80;21050;-58
2021/01/17 06:16:40;;;;;;;51.90;24.67;;;;;;;-12.04;46.92;100456.80;1782665;80;20947;-58
2021/01/17 06:19:10;;;;;;;51.43;21.67;;;;;;;-12.02;46.86;100466.69;1782654;80;21378;-57
2021/01/17 06:21:38;;;;;;;44.03;22.07;;;;;;;-12.01;46.85;100464.89;1782662;80;21552;-58
2021/01/17 06:24:08;;;;;;;45.37;21.17;;;;;;;-12.00;46.89;100460.03;1782527;80;21168;-58
2021/01/17 06:26:40;;;;;;;45.33;20.17;;;;;;;-11.97;46.87;100465.02;1782803;80;21172;-59
2021/01/17 06:29:10;;;;;;;47.10;21.77;;;;;;;-11.93;46.88;100469.09;1782690;80;21572;-59
2021/01/17 06:31:39;;;;;;;38.87;20.40;;;;;;;-11.93;46.90;100474.34;1782686;80;22298;-61
2021/01/17 06:34:14;;;;;;;50.87;23.27;;;;;;;-11.92;47.02;100466.34;1782480;79;21007;-59
2021/01/17 06:36:46;;;;;;;46.83;22.58;;;;;;;-11.88;47.05;100467.77;1782821;80;20939;-60
2021/01/17 06:39:22;;;;;;;45.40;21.80;;;;;;;-11.81;47.06;100475.52;1782675;80;21026;-57
2021/01/17 06:41:55;;;;;;;;;;;;;;;-11.72;47.05;100479.68;1785285;80;21107;-58
2021/01/17 06:44:33;;;;;;;47.43;21.20;;;;;;;-11.67;47.03;100484.09;1782372;80;23370;-57
2021/01/17 06:47:01;;;;;;;46.43;21.73;;;;;;;-11.65;47.00;100480.41;1755673;80;20955;-56
2021/01/17 06:49:35;;;;;;;46.87;22.30;;;;;;;-11.58;47.03;100482.91;1782591;80;21121;-58
2021/01/17 06:52:04;;;;;;;45.73;21.60;;;;;;;-11.52;47.03;100477.65;1782301;80;20931;-57
2021/01/17 06:54:51;;;;;;;51.07;24.30;;;;;;;-11.45;47.16;100484.56;1782621;80;21061;-57
2021/01/17 06:57:20;;;;;;;48.20;23.00;;;;;;;-11.40;47.24;100481.09;1782736;80;21102;-56
2021/01/17 06:59:51;;;;;;;52.13;24.87;;;;;;;-11.36;47.17;100487.78;1782645;80;21619;-58
2021/01/17 07:02:38;;;;;;;55.77;24.87;;;;;;;-11.30;47.24;100488.16;1782710;80;20999;-57
2021/01/17 07:05:33;;;;;;;52.90;24.37;;;;;;;-11.25;47.12;100483.84;1782420;80;21164;-56
2021/01/17 07:08:42;;;;;;;46.50;21.03;;;;;;;-11.09;47.01;100476.89;1782624;80;21081;-55
2021/01/17 07:11:42;;;;;;;42.00;20.97;;;;;;;-10.77;46.53;100476.42;1782617;80;22779;-56
2021/01/17 07:14:10;;;;;;;43.10;20.97;;;;;;;-10.43;45.94;100479.41;1782006;80;21006;-56
2021/01/17 07:16:41;;;;;;;44.67;21.90;;;;;;;-10.02;45.21;100472.79;1782693;80;20895;-57
2021/01/17 07:19:09;;;;;;;41.90;22.33;;;;;;;-9.71;44.70;100469.69;1782307;80;21141;-57
2021/01/17 07:21:40;;;;;;;42.60;20.23;;;;;;;-9.34;44.00;100473.09;1782354;80;21014;-55
2021/01/17 07:24:09;;;;;;;42.77;20.43;;;;;;;-8.95;43.39;100475.83;1782576;80;21425;-57
2021/01/17 07:27:02;;;;;;;45.03;22.10;;;;;;;-8.46;42.64;100471.43;1782565;80;21018;-58
2021/01/17 07:29:30;;;;;;;43.40;23.33;;;;;;;-7.91;41.79;100475.53;1782597;80;21552;-58
2021/01/17 07:31:58;;;;;;;42.57;22.27;;;;;;;-7.27;40.78;100465.98;1751226;80;21014;-58
2021/01/17 07:34:26;;;;;;;51.50;25.43;;;;;;;-6.83;39.92;100457.23;1750933;80;21600;-57
2021/01/17 07:36:54;;;;;;;43.37;23.47;;;;;;;-6.59;39.28;100459.28;1752279;80;21211;-58
2021/01/17 07:39:24;;;;;;;41.63;22.77;;;;;;;-6.33;38.68;100458.02;1782482;80;21011;-55
2021/01/17 07:41:51;;;;;;;41.87;23.57;;;;;;;-6.16;38.15;100460.30;1782573;80;21069;-60
2021/01/17 07:44:20;;;;;;;45.43;23.83;;;;;;;-6.01;37.93;100463.22;1782481;80;21583;-57
2021/01/17 07:46:48;;;;;;;49.73;26.13;;;;;;;-5.87;37.67;100461.30;1782567;80;21596;-58
2021/01/17 07:49:16;;;;;;;50.50;25.47;;;;;;;-5.70;37.28;100458.73;1782683;80;22241;-59
2021/01/17 07:51:44;;;;;;;47.67;24.43;;;;;;;-5.48;37.04;100460.83;1782703;80;20947;-58
2021/01/17 07:54:25;;;;;;;40.83;22.63;;;;;;;-5.14;36.76;100457.33;1782786;80;21090;-59
2021/01/17 07:56:54;;;;;;;43.00;23.73;;;;;;;-4.78;36.23;100453.94;1782645;80;21069;-58
2021/01/17 07:59:24;;;;;;;46.87;24.67;;;;;;;-4.46;35.74;100455.80;1782738;80;21076;-60
2021/01/17 08:01:54;;;;;;;44.43;23.80;;;;;;;-4.19;35.30;100453.34;1782856;80;22260;-58
2021/01/17 08:04:22;;;;;;;40.57;23.50;;;;;;;-3.97;34.95;100452.64;1775399;80;21597;-57
2021/01/17 08:06:51;;;;;;;41.13;22.90;;;;;;;-3.73;34.71;100451.77;1759790;80;20995;-62
2021/01/17 08:09:20;;;;;;;42.50;23.93;;;;;;;-3.48;34.38;100455.70;1759753;81;21024;-58
2021/01/17 08:11:56;;;;;;;43.90;24.07;;;;;;;-3.22;34.04;100455.44;1732283;81;21541;-58
2021/01/17 08:14:34;;;;;;;41.07;23.27;;;;;;;-2.99;33.76;100449.69;1759629;80;21345;-60
2021/01/17 08:17:18;;;;;;;33.10;20.32;;;;;;;-2.74;33.48;100444.19;1759652;81;20956;-58
2021/01/17 08:19:57;;;;;;;39.38;21.52;;;;;;;-2.51;33.23;100441.55;1759674;80;21012;-59
2021/01/17 08:22:30;;;;;;;38.85;21.68;;;;;;;-2.28;32.85;100446.38;1759711;81;20940;-59
2021/01/17 08:24:59;;;;;;;35.80;20.60;;;;;;;-2.07;32.49;100440.87;1759661;80;21152;-53
2021/01/17 08:27:31;;;;;;;33.15;18.87;;;;;;;-1.98;32.31;100446.43;1759793;81;21505;-61
2021/01/17 08:30:08;;;;;;;33.75;19.20;;;;;;;-2.00;32.18;100442.62;1759537;81;21193;-59
2021/01/17 08:32:43;;;;;;;27.00;17.52;;;;;;;-2.09;32.21;100441.86;1759702;81;21467;-59
2021/01/17 08:35:20;;;;;;;28.50;16.35;;;;;;;-2.25;32.15;100435.34;1759635;80;21485;-52
2021/01/17 08:38:11;;;;;;;30.88;17.05;;;;;;;-2.47;32.25;100436.20;1759688;80;21063;-53
2021/01/17 08:40:45;;;;;;;31.20;18.33;;;;;;;-2.87;32.68;100440.79;1759745;81;21368;-52
2021/01/17 08:43:18;;;;;;;28.45;16.73;;;;;;;-3.34;33.34;100446.19;1759659;80;20975;-53
2021/01/17 08:45:48;;;;;;;29.67;16.47;;;;;;;-3.67;33.89;100454.25;1759150;80;21043;-56
2021/01/17 08:48:27;;;;;;;32.90;18.83;;;;;;;-3.95;34.31;100453.82;1759056;81;21126;-53
2021/01/17 08:51:16;;;;;;;28.70;15.70;;;;;;;-4.31;34.79;100453.32;1732040;81;21497;-54
2021/01/17 08:53:44;;;;;;;29.90;17.83;;;;;;;-4.65;35.45;100450.83;1747369;81;21870;-55
2021/01/17 08:58:55;;;;;;;29.17;16.17;;;;;;;-5.15;36.47;100437.94;1888536;75;27106;-54
2021/01/17 09:01:25;;;;;;;28.37;15.70;;;;;;;-5.36;36.84;100438.36;1775372;80;20930;-53
2021/01/17 09:03:55;;;;;;;23.37;11.80;;;;;;;-5.62;37.09;100442.89;1773970;81;21202;-52
2021/01/17 09:06:29;;;;;;;22.43;12.27;;;;;;;-5.86;37.32;100446.23;1747939;80;20950;-55
2021/01/17 09:09:05;;;;;;;20.57;11.57;;;;;;;-6.14;37.70;100446.88;1774077;81;21601;-53
2021/01/17 09:11:37;;;;;;;23.95;12.35;;;;;;;-6.27;38.20;100447.30;1775573;80;21356;-52
2021/01/17 09:14:18;;;;;;;21.97;12.10;;;;;;;-6.39;38.49;100440.56;1774047;81;20926;-56
2021/01/17 09:16:51;;;;;;;21.87;11.87;;;;;;;-6.45;38.91;100433.24;1775399;80;22336;-55
2021/01/17 09:19:22;;;;;;;25.03;13.17;;;;;;;-6.51;39.13;100432.05;1773616;81;21071;-54
2021/01/17 09:21:52;;;;;;;20.67;11.83;;;;;;;-6.52;39.31;100429.55;1849975;77;21546;-57
2021/01/17 09:24:28;;;;;;;23.60;12.90;;;;;;;-6.56;39.54;100432.50;1820375;77;21047;-55
2021/01/17 09:27:05;;;;;;;20.17;10.73;;;;;;;-6.59;39.54;100427.98;1889784;75;26691;-52
2021/01/17 09:29:38;;;;;;;22.03;11.07;;;;;;;-6.65;39.70;100420.66;1860662;77;20882;-54
2021/01/17 09:32:13;;;;;;;19.63;11.07;;;;;;;-6.74;39.83;100420.25;1861060;77;22253;-53
2021/01/17 09:34:43;;;;;;;21.33;10.97;;;;;;;-6.82;40.28;100418.38;1848366;76;20942;-53
2021/01/17 09:37:15;;;;;;;21.37;10.77;;;;;;;-6.88;40.30;100422.45;1858018;76;20902;-53
2021/01/17 09:39:45;;;;;;;21.53;11.73;;;;;;;-6.89;40.67;100408.89;1819891;78;21025;-54
2021/01/17 09:42:15;;;;;;;24.07;12.53;;;;;;;-6.87;40.76;100408.73;1786084;79;21159;-53
2021/01/17 09:44:54;;;;;;;23.00;10.47;;;;;;;-6.93;40.70;100408.02;1799141;78;21194;-54
2021/01/17 09:47:23;;;;;;;19.87;9.57;;;;;;;-7.00;40.74;100412.23;1786278;79;21429;-55
2021/01/17 09:49:52;;;;;;;21.87;10.63;;;;;;;-7.18;41.10;100395.87;1795407;78;21072;-57
2021/01/17 09:52:24;;;;;;;21.30;10.90;;;;;;;-7.14;41.10;100395.09;1798700;78;21123;-61
2021/01/17 09:54:55;;;;;;;20.27;11.40;;;;;;;-7.17;41.07;100398.02;1795430;78;21551;-65
2021/01/17 09:57:25;;;;;;;18.47;9.90;;;;;;;-7.27;41.36;100413.94;1795327;78;21348;-65
2021/01/17 09:59:55;;;;;;;22.13;11.00;;;;;;;-7.27;41.69;100414.44;1799173;78;21530;-65
2021/01/17 10:02:25;;;;;;;21.17;11.47;;;;;;;-7.23;41.61;100404.73;1795030;78;21049;-66
2021/01/17 10:04:53;;;;;;;23.13;11.13;;;;;;;-7.19;41.85;100411.40;1795206;78;21001;-61
2021/01/17 10:07:22;;;;;;;22.57;11.03;;;;;;;-7.07;42.02;100416.80;1795408;78;21016;-60
2021/01/17 10:09:55;;;;;;;21.27;10.73;;;;;;;-6.94;42.10;100419.59;1795074;78;21213;-60
2021/01/17 10:12:26;;;;;;;20.37;9.70;;;;;;;-6.81;42.00;100419.53;1770331;79;21143;-59
2021/01/17 10:14:55;;;;;;;21.90;11.03;;;;;;;-6.74;42.05;100407.88;1794065;79;20985;-61
2021/01/17 10:17:25;;;;;;;23.23;12.17;;;;;;;-6.66;42.13;100403.13;1789742;79;21183;-60
2021/01/17 10:19:53;;;;;;;20.33;11.10;;;;;;;-6.58;42.40;100409.83;1788037;79;21493;-62
2021/01/17 10:22:21;;;;;;;18.47;9.67;;;;;;;-6.51;42.48;100406.89;1784700;80;21481;-62
2021/01/17 10:24:49;;;;;;;15.63;9.27;;;;;;;-6.39;42.30;100403.00;1784570;80;21002;-61
2021/01/17 10:27:17;;;;;;;19.07;9.30;;;;;;;-6.38;41.68;100408.66;1767904;80;21110;-62
2021/01/17 10:29:46;;;;;;;17.50;9.93;;;;;;;-6.38;41.84;100415.28;1767342;81;21047;-60
2021/01/17 10:32:14;;;;;;;20.13;10.23;;;;;;;-6.36;41.56;100413.80;1767371;81;20965;-62
2021/01/17 10:34:49;;;;;;;22.20;10.80;;;;;;;-6.38;41.67;100413.96;1767451;81;22320;-63
2021/01/17 10:37:17;;;;;;;23.53;10.10;;;;;;;-6.39;41.95;100403.50;1739171;81;21031;-62
2021/01/17 10:39:47;;;;;;;19.87;10.10;;;;;;;-6.41;42.15;100404.16;1764827;81;21027;-62
2021/01/17 10:42:23;;;;;;;18.60;10.03;;;;;;;-6.52;41.81;100395.97;1739233;81;21173;-64
2021/01/17 10:45:13;;;;;;;24.90;11.13;;;;;;;-6.61;41.79;100392.92;1766831;81;21494;-63
2021/01/17 10:48:06;;;;;;;20.67;10.53;;;;;;;-6.67;42.00;100390.39;1766872;81;21358;-62
2021/01/17 10:50:44;;;;;;;20.53;9.37;;;;;;;-6.71;42.13;100387.70;1766771;81;21848;-61
2021/01/17 10:53:39;;;;;;;22.13;11.07;;;;;;;-6.69;42.11;100390.19;1693440;81;21008;-60
2021/01/17 10:56:08;;;;;;;20.77;10.43;;;;;;;-6.73;42.06;100387.53;1766820;81;21015;-62
2021/01/17 10:58:41;;;;;;;21.27;10.73;;;;;;;-6.72;42.15;100386.55;1714178;81;21557;-59
2021/01/17 11:01:09;;;;;;;18.37;10.10;;;;;;;-6.71;42.13;100384.23;1766810;81;21386;-57
2021/01/17 11:03:43;;;;;;;19.57;10.23;;;;;;;-6.72;42.08;100387.88;1766806;79;20991;-57
2021/01/17 11:06:21;;;;;;;18.00;10.47;;;;;;;-6.75;42.02;100381.55;1780518;79;21170;-54
2021/01/17 11:08:50;;;;;;;21.10;10.37;;;;;;;-6.75;41.92;100385.52;1752373;79;21019;-59
2021/01/17 11:11:18;;;;;;;20.90;10.90;;;;;;;-6.77;41.77;100385.67;1754699;79;21115;-59
2021/01/17 11:14:03;;;;;;;21.60;11.83;;;;;;;-6.77;41.78;100382.20;1782902;79;21200;-64
2021/01/17 11:16:44;;;;;;;27.77;11.73;;;;;;;-6.77;41.64;100376.91;1764270;81;21479;-61
2021/01/17 11:19:13;;;;;;;19.17;10.43;;;;;;;-6.74;41.81;100376.59;1782811;79;21487;-63
2021/01/17 11:21:42;;;;;;;20.37;10.20;;;;;;;-6.74;41.87;100380.09;1764122;81;20905;-64
2021/01/17 11:24:11;;;;;;;22.10;11.10;;;;;;;-6.75;41.76;100375.76;1768123;80;20999;-61
2021/01/17 11:26:40;;;;;;;20.67;11.03;;;;;;;-6.78;41.74;100368.64;1796464;79;21369;-62
2021/01/17 11:29:17;;;;;;;21.67;10.90;;;;;;;-6.80;41.83;100370.92;1789826;80;20996;-67
2021/01/17 11:31:46;;;;;;;27.87;12.67;;;;;;;-6.76;41.96;100364.84;1783602;80;20930;-64